EmailTwitter


Observations de surface / États-Unis / KJFK (74486)

Régions: Québec | Canada | États-Unis | Europe | France | UK | Ailleurs
Station
Affichage
Infos & localisation pour KJFK (74486) | Aide pour décoder les METARs

Observations prises le 2020-07-10 à 05H51 UTC à NEW YORK/JF KENN, NY (KJFK)

Etat du ciel: partiellement nuageux.

Température: 24.4 Celsius

Point de rosée: 23.3 Celsius

Humidité relative: 94%

Indice Humidex: 35.

Vents: Est à 9 km/h ou 5 noeuds.

Pression au niveau moyen de la mer: 101.56 kilopascals.

Calage altimétrique: 101.56 kilopascals ou 29.99 pouces de mercure.

Visibilité horizontale: 10.00 milles terrestres ou 16.00 kilomètres.

Hauteur du plafond: 244 mètres ( 800 pieds ).

Observation METAR:

KJFK 100551Z 08005KT 10SM BKN008 BKN250 24/23 A2999 RMK AO2 SLP156 T02440233

10261 20244 50003=